createdAt,value
2022-11-18T00:01:19.229Z,27.80
2022-11-18T00:03:46.553Z,26.80
2022-11-18T00:06:15.911Z,27.57
2022-11-18T00:08:42.700Z,29.73
2022-11-18T00:11:12.115Z,25.80
2022-11-18T00:13:57.328Z,30.60
2022-11-18T00:16:27.676Z,28.80
2022-11-18T00:18:54.143Z,28.50
2022-11-18T00:21:20.639Z,27.53
2022-11-18T00:23:49.006Z,28.87
2022-11-18T00:26:15.465Z,30.07
2022-11-18T00:28:42.486Z,28.87
2022-11-18T00:31:11.565Z,28.40
2022-11-18T00:33:38.667Z,29.37
2022-11-18T00:36:07.924Z,25.33
2022-11-18T00:38:34.349Z,27.57
2022-11-18T00:41:18.887Z,28.13
2022-11-18T00:43:45.537Z,30.87
2022-11-18T00:46:13.079Z,37.27
2022-11-18T00:48:40.721Z,28.37
2022-11-18T00:51:11.264Z,30.43
2022-11-18T00:53:37.744Z,28.77
2022-11-18T00:56:04.518Z,27.07
2022-11-18T00:58:30.970Z,28.23
2022-11-18T01:00:57.666Z,28.53
2022-11-18T01:03:25.705Z,31.70
2022-11-18T01:05:52.226Z,27.40
2022-11-18T01:08:19.584Z,30.03
2022-11-18T01:10:47.700Z,30.50
2022-11-18T01:13:20.202Z,26.13
2022-11-18T01:15:51.080Z,29.83
2022-11-18T01:18:20.529Z,27.03
2022-11-18T01:20:47.699Z,27.03
2022-11-18T01:23:15.155Z,32.23
2022-11-18T01:25:43.584Z,25.07
2022-11-18T01:28:10.300Z,27.43
2022-11-18T01:30:38.468Z,29.07
2022-11-18T01:33:05.690Z,29.10
2022-11-18T01:35:40.784Z,29.50
2022-11-18T01:38:08.656Z,29.03
2022-11-18T01:40:35.562Z,31.57
2022-11-18T01:43:02.268Z,29.43
2022-11-18T01:45:34.752Z,28.97
2022-11-18T01:48:22.364Z,30.77
2022-11-18T01:50:56.804Z,30.47
2022-11-18T01:53:29.024Z,32.07
2022-11-18T01:55:58.130Z,32.57
2022-11-18T01:58:30.172Z,30.63
2022-11-18T02:00:57.042Z,32.30
2022-11-18T02:03:25.416Z,29.83
2022-11-18T02:05:53.897Z,32.43
2022-11-18T02:08:22.425Z,32.87
2022-11-18T02:10:48.923Z,31.77
2022-11-18T02:13:15.711Z,32.33
2022-11-18T02:15:59.888Z,36.27
2022-11-18T02:18:37.782Z,31.17
2022-11-18T02:21:19.445Z,31.53
2022-11-18T02:24:02.011Z,30.53
2022-11-18T02:26:46.155Z,27.57
2022-11-18T02:29:18.283Z,30.97
2022-11-18T02:32:00.099Z,28.53
2022-11-18T02:34:41.285Z,31.00
2022-11-18T02:37:36.767Z,29.40
2022-11-18T02:40:06.318Z,28.40
2022-11-18T02:42:36.519Z,29.47
2022-11-18T02:45:07.086Z,27.80
2022-11-18T02:47:36.568Z,26.80
2022-11-18T02:50:11.427Z,30.93
2022-11-18T02:52:39.878Z,29.90
2022-11-18T02:55:09.577Z,30.93
2022-11-18T02:57:37.811Z,28.13
2022-11-18T03:00:04.904Z,25.90
2022-11-18T03:02:46.508Z,31.00
2022-11-18T03:05:32.155Z,28.07
2022-11-18T03:08:08.560Z,27.63
2022-11-18T03:10:43.156Z,29.07
2022-11-18T03:13:31.037Z,27.30
2022-11-18T03:16:10.951Z,24.70
2022-11-18T03:18:50.096Z,24.97
2022-11-18T03:21:24.972Z,28.87
2022-11-18T03:24:07.470Z,25.67
2022-11-18T03:26:38.967Z,23.93
2022-11-18T03:29:10.973Z,27.90
2022-11-18T03:31:45.534Z,23.47
2022-11-18T03:34:36.802Z,25.13
2022-11-18T03:37:10.431Z,24.30
2022-11-18T03:39:41.923Z,23.17
2022-11-18T03:42:22.111Z,24.20
2022-11-18T03:44:54.558Z,22.00
2022-11-18T03:47:35.838Z,23.50
2022-11-18T03:50:16.214Z,24.07
2022-11-18T03:52:43.666Z,22.73
2022-11-18T03:55:16.062Z,23.80
2022-11-18T03:57:51.988Z,23.03
2022-11-18T04:00:20.373Z,21.87
2022-11-18T04:02:49.807Z,21.63
2022-11-18T04:05:18.404Z,23.23
2022-11-18T04:07:56.997Z,23.33
2022-11-18T04:10:59.210Z,20.83
2022-11-18T04:13:30.185Z,20.33
2022-11-18T04:15:56.888Z,22.03
2022-11-18T04:18:23.653Z,21.70
2022-11-18T04:20:50.131Z,24.83
2022-11-18T04:23:16.595Z,22.40
2022-11-18T04:25:43.056Z,25.57
2022-11-18T04:28:09.593Z,22.97
2022-11-18T04:30:36.302Z,24.60
2022-11-18T04:33:02.868Z,23.23
2022-11-18T04:35:29.476Z,25.23
2022-11-18T04:37:55.972Z,25.73
2022-11-18T04:40:22.476Z,25.73
2022-11-18T04:42:49.038Z,24.33
2022-11-18T04:45:15.610Z,25.10
2022-11-18T04:47:42.154Z,27.37
2022-11-18T04:50:09.125Z,28.23
2022-11-18T04:52:35.711Z,22.80
2022-11-18T04:55:02.225Z,31.90
2022-11-18T04:57:28.739Z,25.83
2022-11-18T04:59:55.271Z,26.77
2022-11-18T05:02:21.797Z,25.17
2022-11-18T05:04:48.291Z,26.80
2022-11-18T05:07:16.084Z,27.67
2022-11-18T05:09:42.856Z,27.80
2022-11-18T05:12:31.256Z,26.10
2022-11-18T05:14:57.854Z,26.87
2022-11-18T05:17:24.767Z,25.67
2022-11-18T05:19:51.384Z,28.60
2022-11-18T05:22:17.917Z,31.13
2022-11-18T05:24:44.425Z,24.23
2022-11-18T05:27:11.504Z,26.03
2022-11-18T05:29:37.919Z,26.97
2022-11-18T05:32:04.720Z,27.07
2022-11-18T05:34:31.207Z,27.27
2022-11-18T05:36:57.712Z,25.87
2022-11-18T05:39:24.665Z,31.67
2022-11-18T05:42:09.567Z,28.93
2022-11-18T05:44:36.073Z,30.57
2022-11-18T05:47:02.527Z,27.53
2022-11-18T05:49:28.985Z,26.23
2022-11-18T05:51:55.469Z,29.37
2022-11-18T05:54:22.070Z,26.60
2022-11-18T05:56:48.787Z,31.73
2022-11-18T05:59:15.694Z,32.93
2022-11-18T06:01:52.704Z,29.00
2022-11-18T06:04:28.357Z,28.03
2022-11-18T06:07:00.422Z,28.53
2022-11-18T06:09:32.284Z,31.43
2022-11-18T06:12:01.496Z,34.43
2022-11-18T06:14:43.071Z,27.77
2022-11-18T06:17:15.327Z,27.70
2022-11-18T06:19:42.051Z,31.60
2022-11-18T06:22:09.870Z,29.03
2022-11-18T06:24:36.849Z,26.47
2022-11-18T06:27:03.680Z,34.17
2022-11-18T06:29:31.180Z,33.60
2022-11-18T06:31:57.763Z,33.50
2022-11-18T06:34:24.232Z,30.03
2022-11-18T06:36:50.877Z,29.03
2022-11-18T06:39:17.667Z,30.53
2022-11-18T06:41:44.303Z,29.20
2022-11-18T06:44:14.572Z,31.43
2022-11-18T06:46:55.844Z,32.80
2022-11-18T06:49:23.444Z,29.77
2022-11-18T06:51:49.896Z,33.00
2022-11-18T06:54:16.360Z,29.63
2022-11-18T06:56:42.902Z,30.60
2022-11-18T06:59:09.425Z,30.27
2022-11-18T07:01:38.700Z,30.10
2022-11-18T07:04:05.595Z,34.63
2022-11-18T07:06:34.435Z,35.40
2022-11-18T07:09:02.749Z,30.60
2022-11-18T07:11:29.646Z,29.67
2022-11-18T07:13:56.472Z,33.30
2022-11-18T07:16:25.263Z,31.33
2022-11-18T07:18:53.553Z,29.80
2022-11-18T07:21:22.880Z,32.47
2022-11-18T07:23:49.463Z,33.90
2022-11-18T07:26:16.211Z,30.20
2022-11-18T07:28:43.122Z,32.57
2022-11-18T07:31:15.153Z,45.17
2022-11-18T07:33:43.340Z,29.07
2022-11-18T07:36:15.292Z,29.30
2022-11-18T07:38:42.439Z,30.30
2022-11-18T07:41:14.814Z,28.90
2022-11-18T07:43:41.354Z,27.27
2022-11-18T07:46:13.169Z,27.57
2022-11-18T07:48:40.620Z,26.47
2022-11-18T07:51:07.253Z,27.87
2022-11-18T07:53:34.623Z,23.37
2022-11-18T07:56:01.905Z,24.90
2022-11-18T07:58:28.491Z,23.97
2022-11-18T08:00:55.024Z,21.53
2022-11-18T08:03:26.710Z,27.67
2022-11-18T08:05:54.445Z,20.80
2022-11-18T08:08:21.018Z,23.83
2022-11-18T08:10:47.499Z,24.00
2022-11-18T08:13:13.998Z,21.00
2022-11-18T08:15:43.872Z,21.43
2022-11-18T08:18:13.742Z,21.00
2022-11-18T08:20:40.734Z,21.70
2022-11-18T08:23:07.235Z,19.97
2022-11-18T08:25:33.740Z,20.87
2022-11-18T08:28:00.387Z,21.60
2022-11-18T08:30:26.996Z,22.13
2022-11-18T08:32:53.475Z,20.83
2022-11-18T08:35:20.239Z,22.47
2022-11-18T08:37:46.723Z,20.40
2022-11-18T08:40:13.904Z,20.87
2022-11-18T08:42:40.379Z,20.07
2022-11-18T08:45:10.549Z,22.67
2022-11-18T08:47:37.696Z,20.50
2022-11-18T08:50:09.917Z,18.53
2022-11-18T08:52:36.444Z,19.77
2022-11-18T08:55:04.482Z,24.77
2022-11-18T08:57:31.372Z,18.77
2022-11-18T08:59:57.859Z,20.63
2022-11-18T09:02:24.731Z,20.50
2022-11-18T09:04:52.403Z,19.23
2022-11-18T09:07:22.529Z,19.27
2022-11-18T09:09:49.104Z,18.87
2022-11-18T09:12:17.688Z,18.30
2022-11-18T09:17:31.765Z,21.57
2022-11-18T09:19:58.208Z,18.17
2022-11-18T09:22:24.845Z,19.53
2022-11-18T09:24:51.502Z,19.67
2022-11-18T09:27:18.194Z,18.07
2022-11-18T09:29:45.266Z,16.33
2022-11-18T09:32:11.882Z,18.43
2022-11-18T09:34:38.515Z,16.70
2022-11-18T09:37:06.898Z,18.97
2022-11-18T09:39:39.499Z,18.03
2022-11-18T09:42:32.875Z,16.87
2022-11-18T09:45:11.716Z,16.07
2022-11-18T09:47:40.160Z,17.37
2022-11-18T09:50:41.767Z,15.40
2022-11-18T09:53:19.727Z,16.33
2022-11-18T09:55:48.052Z,17.47
2022-11-18T09:58:21.305Z,16.27
2022-11-18T10:00:47.923Z,17.67
2022-11-18T10:03:34.848Z,18.07
2022-11-18T10:06:23.561Z,16.50
2022-11-18T10:08:58.191Z,14.53
2022-11-18T10:11:28.763Z,13.63
2022-11-18T10:14:20.013Z,12.73
2022-11-18T10:17:10.037Z,13.37
2022-11-18T10:20:22.039Z,12.47
2022-11-18T10:22:51.184Z,14.20
2022-11-18T10:25:18.158Z,12.83
2022-11-18T10:27:47.653Z,14.00
2022-11-18T10:30:18.773Z,11.57
2022-11-18T10:32:54.551Z,11.77
2022-11-18T10:35:28.982Z,10.47
2022-11-18T10:38:08.980Z,10.90
2022-11-18T10:40:38.894Z,13.33
2022-11-18T10:43:05.339Z,11.87
2022-11-18T10:45:32.923Z,9.50
2022-11-18T10:48:14.601Z,10.73
2022-11-18T10:50:43.716Z,11.13
2022-11-18T10:53:25.220Z,11.60
2022-11-18T10:56:04.059Z,10.27
2022-11-18T10:58:35.616Z,10.10
2022-11-18T11:01:27.206Z,11.47
2022-11-18T11:03:56.476Z,12.63
2022-11-18T11:06:38.334Z,9.70
2022-11-18T11:09:10.910Z,8.27
2022-11-18T11:11:43.324Z,9.77
2022-11-18T11:14:22.425Z,9.97
2022-11-18T11:17:15.654Z,10.93
2022-11-18T11:19:50.439Z,9.93
2022-11-18T11:22:17.704Z,10.10
2022-11-18T11:24:45.944Z,11.73
2022-11-18T11:30:04.775Z,10.47
2022-11-18T11:32:43.328Z,12.77
2022-11-18T11:35:20.272Z,12.80
2022-11-18T11:37:59.589Z,9.93
2022-11-18T11:40:53.337Z,14.57
2022-11-18T11:43:22.641Z,12.57
2022-11-18T11:46:14.266Z,12.37
2022-11-18T11:49:26.503Z,11.43
2022-11-18T11:52:11.406Z,12.47
2022-11-18T11:54:52.541Z,11.87
2022-11-18T11:57:30.104Z,13.87
2022-11-18T12:00:09.314Z,10.97
2022-11-18T12:03:05.971Z,10.73
2022-11-18T12:05:36.565Z,12.73
2022-11-18T12:08:09.906Z,12.00
2022-11-18T12:10:45.773Z,11.83
2022-11-18T12:13:25.997Z,13.10
2022-11-18T12:16:03.941Z,11.73
2022-11-18T12:18:30.350Z,13.23
2022-11-18T12:20:56.963Z,11.70
2022-11-18T12:23:31.395Z,14.40
2022-11-18T12:25:59.637Z,12.70
2022-11-18T12:28:30.687Z,10.37
2022-11-18T12:31:19.256Z,12.23
2022-11-18T12:33:53.220Z,11.90
2022-11-18T12:36:26.463Z,13.97
2022-11-18T12:38:53.501Z,13.20
2022-11-18T12:42:04.239Z,10.27
2022-11-18T12:44:32.784Z,11.13
2022-11-18T12:47:00.905Z,13.43
2022-11-18T12:49:27.346Z,12.20
2022-11-18T12:51:56.142Z,14.13
2022-11-18T12:54:29.972Z,11.67
2022-11-18T12:57:01.567Z,10.23
2022-11-18T12:59:30.165Z,11.57
2022-11-18T13:02:17.332Z,10.17
2022-11-18T13:04:47.573Z,9.80
2022-11-18T13:07:37.092Z,8.87
2022-11-18T13:10:19.262Z,7.47
2022-11-18T13:12:45.949Z,9.30
2022-11-18T13:15:31.024Z,8.73
2022-11-18T13:18:14.038Z,10.07
2022-11-18T13:20:42.822Z,9.07
2022-11-18T13:23:27.836Z,9.00
2022-11-18T13:26:02.602Z,7.50
2022-11-18T13:28:40.471Z,10.70
2022-11-18T13:31:31.936Z,8.30
2022-11-18T13:34:20.132Z,7.37
2022-11-18T13:36:49.031Z,7.93
2022-11-18T13:39:19.087Z,6.53
2022-11-18T13:41:47.120Z,5.77
2022-11-18T13:44:24.201Z,7.60
2022-11-18T13:47:06.195Z,6.10
2022-11-18T13:49:50.843Z,5.07
2022-11-18T13:52:27.805Z,6.63
2022-11-18T13:54:56.087Z,6.50
2022-11-18T13:57:25.446Z,5.07
2022-11-18T13:59:53.742Z,5.67
2022-11-18T14:02:20.307Z,7.17
2022-11-18T14:04:56.316Z,5.33
2022-11-18T14:07:34.735Z,5.37
2022-11-18T14:10:05.681Z,9.67
2022-11-18T14:12:34.348Z,5.93
2022-11-18T14:15:32.914Z,4.03
2022-11-18T14:18:01.393Z,4.77
2022-11-18T14:20:30.016Z,4.93
2022-11-18T14:22:59.780Z,7.20
2022-11-18T14:25:30.553Z,4.83
2022-11-18T14:28:10.354Z,4.87
2022-11-18T14:30:41.757Z,4.80
2022-11-18T14:33:17.277Z,4.37
2022-11-18T14:35:56.660Z,5.27
2022-11-18T14:41:47.822Z,4.80
2022-11-18T14:44:15.257Z,5.03
2022-11-18T14:46:44.649Z,4.80
2022-11-18T14:49:15.102Z,7.70
2022-11-18T14:51:41.651Z,7.67
2022-11-18T14:54:12.756Z,10.30
2022-11-18T14:56:39.408Z,7.67
2022-11-18T14:59:05.883Z,4.23
2022-11-18T15:01:32.393Z,7.10
2022-11-18T15:03:58.875Z,5.87
2022-11-18T15:06:25.450Z,6.67
2022-11-18T15:08:53.184Z,7.10
2022-11-18T15:11:19.822Z,5.70
2022-11-18T15:13:46.393Z,6.90
2022-11-18T15:16:18.953Z,6.73
2022-11-18T15:18:48.417Z,6.43
2022-11-18T15:21:16.160Z,5.17
2022-11-18T15:23:42.634Z,6.87
2022-11-18T15:26:19.025Z,8.90
2022-11-18T15:28:49.579Z,7.43
2022-11-18T15:31:16.772Z,6.50
2022-11-18T15:33:43.949Z,5.80
2022-11-18T15:36:17.998Z,6.70
2022-11-18T15:38:44.966Z,6.87
2022-11-18T15:41:26.275Z,7.37
2022-11-18T15:43:54.203Z,5.63
2022-11-18T15:46:22.107Z,7.37
2022-11-18T15:48:51.862Z,11.57
2022-11-18T15:51:18.984Z,6.30
2022-11-18T15:53:45.437Z,7.93
2022-11-18T15:56:24.043Z,9.37
2022-11-18T15:59:09.267Z,8.67
2022-11-18T16:01:38.905Z,6.90
2022-11-18T16:04:07.240Z,9.87
2022-11-18T16:06:34.517Z,10.33
2022-11-18T16:09:01.719Z,9.80
2022-11-18T16:11:47.890Z,10.50
2022-11-18T16:14:17.402Z,8.53
2022-11-18T16:16:45.704Z,9.37
2022-11-18T16:19:15.834Z,11.93
2022-11-18T16:21:46.453Z,9.43
2022-11-18T16:24:19.092Z,11.43
2022-11-18T16:26:45.993Z,17.10
2022-11-18T16:29:15.204Z,16.60
2022-11-18T16:31:43.765Z,11.23
2022-11-18T16:34:19.175Z,9.13
2022-11-18T16:36:48.240Z,9.90
2022-11-18T16:39:17.032Z,9.27
2022-11-18T16:41:45.225Z,7.60
2022-11-18T16:44:16.482Z,9.70
2022-11-18T16:46:47.039Z,9.43
2022-11-18T16:49:15.254Z,6.37
2022-11-18T16:51:43.480Z,8.10
2022-11-18T16:54:26.056Z,6.97
2022-11-18T16:56:54.493Z,6.77
2022-11-18T16:59:26.065Z,7.50
2022-11-18T17:01:54.182Z,7.33
2022-11-18T17:04:21.844Z,8.13
2022-11-18T17:06:48.532Z,7.37
2022-11-18T17:09:18.291Z,7.03
2022-11-18T17:11:45.275Z,9.30
2022-11-18T17:14:12.532Z,9.30
2022-11-18T17:16:39.174Z,10.23
2022-11-18T17:19:16.767Z,8.03
2022-11-18T17:21:43.999Z,4.90
2022-11-18T17:24:12.687Z,7.47
2022-11-18T17:26:39.495Z,5.17
2022-11-18T17:29:06.194Z,5.73
2022-11-18T17:31:33.386Z,7.60
2022-11-18T17:33:59.881Z,6.83
2022-11-18T17:36:27.561Z,9.13
2022-11-18T17:38:56.350Z,5.00
2022-11-18T17:41:43.825Z,4.87
2022-11-18T17:44:12.567Z,5.70
2022-11-18T17:46:39.663Z,3.53
2022-11-18T17:49:10.973Z,3.37
2022-11-18T17:51:37.474Z,5.83
2022-11-18T17:54:04.118Z,6.07
2022-11-18T17:56:30.617Z,5.97
2022-11-18T17:58:57.249Z,5.23
2022-11-18T18:01:24.055Z,5.87
2022-11-18T18:03:50.656Z,7.30
2022-11-18T18:06:17.873Z,8.87
2022-11-18T18:08:44.329Z,6.37
2022-11-18T18:11:16.374Z,7.33
2022-11-18T18:14:01.803Z,6.33
2022-11-18T18:16:30.339Z,8.97
2022-11-18T18:18:58.772Z,8.17
2022-11-18T18:21:26.105Z,12.17
2022-11-18T18:23:52.558Z,8.97
2022-11-18T18:26:19.398Z,7.10
2022-11-18T18:28:46.105Z,6.03
2022-11-18T18:31:14.874Z,5.63
2022-11-18T18:33:42.582Z,9.07
2022-11-18T18:36:12.591Z,12.07
2022-11-18T18:38:39.961Z,9.77
2022-11-18T18:41:12.834Z,20.77
2022-11-18T18:43:39.929Z,10.37
2022-11-18T18:46:30.430Z,9.20
2022-11-18T18:49:14.900Z,9.10
2022-11-18T18:51:43.625Z,7.17
2022-11-18T18:54:12.174Z,7.90
2022-11-18T18:56:38.737Z,6.87
2022-11-18T18:59:05.902Z,6.97
2022-11-18T19:01:33.624Z,6.43
2022-11-18T19:04:02.208Z,7.50
2022-11-18T19:06:56.915Z,6.17
2022-11-18T19:09:21.265Z,7.13
2022-11-18T19:12:06.522Z,7.27
2022-11-18T19:14:35.077Z,6.10
2022-11-18T19:17:06.684Z,7.70
2022-11-18T19:19:55.200Z,6.97
2022-11-18T19:22:21.713Z,8.57
2022-11-18T19:24:50.149Z,6.63
2022-11-18T19:27:19.298Z,6.10
2022-11-18T19:29:46.018Z,5.93
2022-11-18T19:32:12.479Z,7.07
2022-11-18T19:34:39.063Z,4.37
2022-11-18T19:37:05.566Z,6.13
2022-11-18T19:39:32.014Z,6.03
2022-11-18T19:41:58.939Z,8.57
2022-11-18T19:44:28.233Z,6.87
2022-11-18T19:46:54.680Z,5.63
2022-11-18T19:49:21.898Z,5.27
2022-11-18T19:51:48.539Z,6.03
2022-11-18T19:54:15.065Z,5.90
2022-11-18T19:56:41.535Z,8.53
2022-11-18T19:59:08.131Z,6.27
2022-11-18T20:01:34.674Z,5.50
2022-11-18T20:04:05.791Z,6.67
2022-11-18T20:06:34.725Z,4.40
2022-11-18T20:09:01.798Z,5.80
2022-11-18T20:11:28.799Z,7.10
2022-11-18T20:13:55.323Z,5.93
2022-11-18T20:16:24.129Z,6.63
2022-11-18T20:19:05.032Z,6.27
2022-11-18T20:21:34.595Z,13.63
2022-11-18T20:24:03.545Z,8.13
2022-11-18T20:26:35.369Z,7.50
2022-11-18T20:29:02.044Z,9.17
2022-11-18T20:31:29.277Z,7.17
2022-11-18T20:33:56.706Z,6.53
2022-11-18T20:36:27.176Z,6.77
2022-11-18T20:38:56.200Z,8.43
2022-11-18T20:41:23.947Z,6.67
2022-11-18T20:43:50.445Z,7.93
2022-11-18T20:46:21.005Z,11.33
2022-11-18T20:48:49.026Z,10.07
2022-11-18T20:51:18.037Z,9.43
2022-11-18T20:53:44.782Z,9.47
2022-11-18T20:56:13.960Z,10.93
2022-11-18T20:58:41.169Z,7.27
2022-11-18T21:01:18.703Z,8.20
2022-11-18T21:03:58.196Z,7.57
2022-11-18T21:06:28.011Z,9.77
2022-11-18T21:09:04.835Z,8.33
2022-11-18T21:11:34.881Z,8.87
2022-11-18T21:14:25.082Z,10.60
2022-11-18T21:17:03.184Z,10.60
2022-11-18T21:19:30.137Z,12.73
2022-11-18T21:21:57.019Z,10.93
2022-11-18T21:24:27.930Z,9.57
2022-11-18T21:26:55.494Z,11.80
2022-11-18T21:29:23.835Z,25.03
2022-11-18T21:31:51.341Z,15.00
2022-11-18T21:34:18.268Z,13.90
2022-11-18T21:36:50.203Z,13.97
2022-11-18T21:39:19.888Z,12.37
2022-11-18T21:41:50.594Z,11.63
2022-11-18T21:44:18.767Z,11.67
2022-11-18T21:46:45.179Z,13.87
2022-11-18T21:49:11.656Z,11.77
2022-11-18T21:51:38.148Z,13.70
2022-11-18T21:54:05.095Z,13.67
2022-11-18T21:56:32.197Z,12.00
2022-11-18T21:59:01.498Z,14.13
2022-11-18T22:01:33.105Z,17.67
2022-11-18T22:04:01.838Z,16.63
2022-11-18T22:06:30.124Z,18.73
2022-11-18T22:08:56.788Z,14.97
2022-11-18T22:11:24.212Z,15.13
2022-11-18T22:13:51.985Z,13.17
2022-11-18T22:16:20.937Z,14.20
2022-11-18T22:18:54.744Z,13.37
2022-11-18T22:21:23.607Z,12.93
2022-11-18T22:23:50.122Z,10.70
2022-11-18T22:26:18.887Z,12.50
2022-11-18T22:28:45.962Z,14.00
2022-11-18T22:31:15.168Z,14.07
2022-11-18T22:33:42.503Z,11.90
2022-11-18T22:36:13.017Z,13.73
2022-11-18T22:38:43.497Z,17.13
2022-11-18T22:41:33.669Z,14.47
2022-11-18T22:44:05.673Z,17.03
2022-11-18T22:46:34.645Z,17.70
2022-11-18T22:49:01.141Z,13.23
2022-11-18T22:51:27.737Z,15.23
2022-11-18T22:54:16.037Z,10.40
2022-11-18T22:56:40.622Z,13.13
2022-11-18T22:59:08.081Z,12.90
2022-11-18T23:01:34.570Z,16.13
2022-11-18T23:04:00.970Z,13.07
2022-11-18T23:06:27.429Z,12.50
2022-11-18T23:08:54.858Z,15.33
2022-11-18T23:11:39.764Z,15.00
2022-11-18T23:14:08.484Z,11.67
2022-11-18T23:16:39.065Z,10.87
2022-11-18T23:19:16.013Z,14.00
2022-11-18T23:21:43.839Z,15.83
2022-11-18T23:24:11.060Z,12.03
2022-11-18T23:26:37.688Z,10.07
2022-11-18T23:29:04.161Z,16.70
2022-11-18T23:31:30.601Z,16.57
2022-11-18T23:33:57.860Z,12.77
2022-11-18T23:36:26.457Z,13.13
2022-11-18T23:38:53.934Z,13.67
2022-11-18T23:41:20.839Z,10.43
2022-11-18T23:43:48.817Z,14.57
2022-11-18T23:46:17.245Z,14.13
2022-11-18T23:48:44.699Z,12.30
2022-11-18T23:51:15.465Z,13.47
2022-11-18T23:53:42.592Z,15.37
2022-11-18T23:56:15.382Z,12.37
2022-11-18T23:58:43.865Z,13.23
